createdAt,value
2023-01-21T00:01:28.083Z,35.73
2023-01-21T00:03:55.876Z,35.43
2023-01-21T00:06:23.314Z,34.97
2023-01-21T00:08:50.822Z,34.51
2023-01-21T00:11:18.892Z,34.54
2023-01-21T00:13:46.629Z,34.82
2023-01-21T00:16:15.388Z,34.81
2023-01-21T00:18:43.169Z,35.13
2023-01-21T00:21:10.780Z,35.43
2023-01-21T00:23:38.395Z,35.40
2023-01-21T00:26:07.223Z,35.20
2023-01-21T00:28:35.731Z,35.18
2023-01-21T00:31:05.092Z,35.14
2023-01-21T00:33:32.992Z,35.28
2023-01-21T00:36:30.028Z,35.28
2023-01-21T00:38:57.850Z,35.29
2023-01-21T00:41:25.714Z,35.29
2023-01-21T00:43:53.500Z,35.18
2023-01-21T00:46:21.147Z,34.83
2023-01-21T00:48:48.749Z,34.64
2023-01-21T00:51:16.388Z,34.48
2023-01-21T00:53:44.054Z,34.38
2023-01-21T00:56:12.755Z,34.26
2023-01-21T00:58:40.772Z,34.31
2023-01-21T01:01:10.375Z,34.61
2023-01-21T01:03:38.197Z,34.75
2023-01-21T01:06:10.686Z,34.58
2023-01-21T01:08:38.403Z,34.49
2023-01-21T01:11:06.332Z,34.55
2023-01-21T01:13:34.868Z,34.83
2023-01-21T01:16:03.130Z,34.59
2023-01-21T01:18:32.963Z,34.51
2023-01-21T01:21:00.510Z,34.48
2023-01-21T01:23:28.222Z,34.28
2023-01-21T01:26:06.814Z,34.34
2023-01-21T01:28:34.750Z,34.10
2023-01-21T01:31:04.950Z,34.26
2023-01-21T01:33:32.753Z,34.58
2023-01-21T01:36:08.693Z,34.66
2023-01-21T01:38:36.308Z,34.53
2023-01-21T01:41:03.902Z,34.54
2023-01-21T01:44:06.135Z,34.47
2023-01-21T01:46:36.587Z,34.11
2023-01-21T01:49:16.496Z,34.08
2023-01-21T01:51:47.277Z,34.23
2023-01-21T01:54:17.688Z,34.10
2023-01-21T01:56:46.611Z,34.46
2023-01-21T01:59:14.160Z,34.36
2023-01-21T02:01:41.882Z,34.37
2023-01-21T02:04:12.849Z,34.39
2023-01-21T02:06:40.428Z,34.35
2023-01-21T02:09:08.747Z,33.83
2023-01-21T02:11:36.882Z,33.68
2023-01-21T02:14:04.424Z,33.69
2023-01-21T02:16:35.300Z,33.39
2023-01-21T02:19:17.475Z,33.37
2023-01-21T02:21:50.832Z,33.61
2023-01-21T02:24:36.832Z,33.81
2023-01-21T02:27:30.713Z,33.85
2023-01-21T02:30:20.357Z,33.50
2023-01-21T02:33:07.531Z,33.49
2023-01-21T02:35:57.634Z,33.53
2023-01-21T02:38:36.431Z,33.60
2023-01-21T02:41:12.431Z,33.45
2023-01-21T02:43:58.074Z,33.28
2023-01-21T02:46:40.910Z,32.98
2023-01-21T02:49:47.132Z,32.88
2023-01-21T02:52:19.172Z,32.63
2023-01-21T02:55:00.927Z,32.35
2023-01-21T02:57:36.910Z,32.22
2023-01-21T03:00:12.308Z,32.26
2023-01-21T03:03:14.767Z,32.59
2023-01-21T03:05:55.567Z,32.70
2023-01-21T03:08:25.449Z,32.68
2023-01-21T03:11:17.000Z,32.70
2023-01-21T03:14:36.221Z,32.79
2023-01-21T03:17:35.030Z,32.60
2023-01-21T03:20:39.313Z,32.65
2023-01-21T03:23:10.031Z,32.66
2023-01-21T03:25:38.240Z,32.56
2023-01-21T03:28:08.389Z,32.49
2023-01-21T03:30:36.014Z,32.53
2023-01-21T03:33:03.658Z,32.40
2023-01-21T03:35:36.964Z,32.36
2023-01-21T03:38:26.233Z,32.39
2023-01-21T03:41:15.168Z,32.37
2023-01-21T03:43:42.830Z,32.07
2023-01-21T03:46:35.125Z,31.89
2023-01-21T03:49:34.385Z,32.05
2023-01-21T03:52:02.082Z,32.13
2023-01-21T03:54:29.584Z,32.17
2023-01-21T03:56:57.148Z,32.23
2023-01-21T03:59:24.661Z,32.39
2023-01-21T04:01:52.208Z,32.61
2023-01-21T04:04:19.775Z,32.65
2023-01-21T04:06:47.365Z,32.82
2023-01-21T04:09:15.016Z,32.81
2023-01-21T04:11:42.569Z,32.48
2023-01-21T04:14:10.085Z,32.33
2023-01-21T04:16:37.765Z,32.20
2023-01-21T04:19:05.746Z,32.34
2023-01-21T04:21:33.448Z,32.17
2023-01-21T04:24:01.162Z,32.34
2023-01-21T04:26:28.675Z,32.53
2023-01-21T04:28:56.269Z,32.51
2023-01-21T04:31:23.984Z,32.51
2023-01-21T04:33:51.632Z,32.74
2023-01-21T04:36:19.489Z,32.85
2023-01-21T04:38:46.983Z,32.76
2023-01-21T04:41:14.584Z,32.70
2023-01-21T04:43:42.112Z,32.89
2023-01-21T04:46:09.625Z,33.04
2023-01-21T04:48:37.648Z,33.34
2023-01-21T04:51:06.816Z,33.43
2023-01-21T04:53:34.447Z,33.31
2023-01-21T04:56:02.350Z,33.30
2023-01-21T04:58:30.036Z,33.40
2023-01-21T05:00:57.660Z,33.53
2023-01-21T05:03:25.346Z,33.74
2023-01-21T05:05:52.893Z,34.23
2023-01-21T05:08:20.605Z,33.74
2023-01-21T05:10:48.426Z,33.59
2023-01-21T05:13:16.055Z,33.56
2023-01-21T05:15:43.643Z,33.42
2023-01-21T05:18:11.367Z,33.30
2023-01-21T05:20:38.943Z,33.28
2023-01-21T05:23:06.733Z,33.43
2023-01-21T05:25:34.402Z,33.53
2023-01-21T05:28:02.685Z,33.16
2023-01-21T05:30:30.488Z,33.13
2023-01-21T05:32:58.113Z,33.16
2023-01-21T05:35:25.757Z,33.16
2023-01-21T05:37:53.445Z,33.18
2023-01-21T05:40:21.230Z,33.33
2023-01-21T05:42:48.949Z,33.37
2023-01-21T05:45:16.679Z,33.35
2023-01-21T05:47:44.341Z,33.32
2023-01-21T05:50:12.474Z,33.36
2023-01-21T05:52:40.578Z,33.32
2023-01-21T05:55:09.781Z,33.31
2023-01-21T05:57:37.656Z,33.27
2023-01-21T06:00:06.585Z,33.20
2023-01-21T06:02:35.331Z,33.22
2023-01-21T06:05:03.221Z,33.22
2023-01-21T06:07:30.852Z,33.05
2023-01-21T06:09:58.739Z,33.08
2023-01-21T06:12:26.867Z,32.92
2023-01-21T06:14:54.548Z,32.80
2023-01-21T06:17:23.594Z,32.82
2023-01-21T06:19:51.120Z,32.83
2023-01-21T06:22:19.370Z,33.12
2023-01-21T06:24:48.056Z,33.67
2023-01-21T06:27:16.056Z,33.74
2023-01-21T06:29:46.943Z,33.71
2023-01-21T06:32:18.131Z,33.71
2023-01-21T06:34:46.719Z,33.67
2023-01-21T06:37:15.399Z,33.75
2023-01-21T06:39:43.433Z,33.97
2023-01-21T06:42:11.233Z,34.30
2023-01-21T06:44:38.805Z,33.98
2023-01-21T06:47:06.843Z,33.62
2023-01-21T06:49:34.714Z,33.53
2023-01-21T06:52:02.723Z,33.54
2023-01-21T06:54:30.949Z,33.60
2023-01-21T06:56:59.134Z,34.21
2023-01-21T06:59:27.291Z,34.63
2023-01-21T07:01:55.999Z,34.11
2023-01-21T07:04:24.009Z,33.88
2023-01-21T07:06:52.085Z,33.57
2023-01-21T07:09:20.598Z,33.71
2023-01-21T07:11:49.846Z,33.72
2023-01-21T07:14:18.385Z,33.74
2023-01-21T07:16:46.989Z,34.06
2023-01-21T07:19:15.772Z,34.07
2023-01-21T07:21:44.053Z,34.08
2023-01-21T07:24:12.723Z,33.89
2023-01-21T07:26:42.119Z,33.94
2023-01-21T07:29:10.800Z,33.95
2023-01-21T07:31:39.420Z,33.88
2023-01-21T07:34:07.602Z,33.77
2023-01-21T07:36:35.733Z,33.69
2023-01-21T07:39:04.126Z,33.54
2023-01-21T07:41:32.492Z,33.63
2023-01-21T07:44:00.876Z,34.01
2023-01-21T07:46:28.653Z,34.08
2023-01-21T07:48:57.837Z,34.06
2023-01-21T07:51:26.240Z,34.13
2023-01-21T07:53:56.814Z,34.19
2023-01-21T07:56:27.044Z,34.00
2023-01-21T07:58:55.735Z,33.95
2023-01-21T08:01:27.432Z,33.73
2023-01-21T08:03:55.053Z,33.62
2023-01-21T08:06:22.914Z,33.69
2023-01-21T08:08:50.983Z,33.80
2023-01-21T08:11:18.846Z,33.61
2023-01-21T08:13:47.435Z,33.51
2023-01-21T08:16:15.697Z,33.58
2023-01-21T11:59:19.251Z,23.29
2023-01-21T12:02:04.504Z,39.27
2023-01-21T12:04:32.000Z,41.79
2023-01-21T12:07:00.245Z,42.54
2023-01-21T12:09:28.148Z,42.73
2023-01-21T12:12:31.442Z,42.05
2023-01-21T12:14:59.029Z,41.50
2023-01-21T12:17:51.848Z,41.23
2023-01-21T12:20:47.438Z,41.46
2023-01-21T12:23:39.403Z,40.66
2023-01-21T12:26:39.068Z,39.92
2023-01-21T12:29:38.345Z,39.45
2023-01-21T12:32:11.676Z,39.25
2023-01-21T12:35:10.652Z,38.97
2023-01-21T12:37:47.971Z,38.66
2023-01-21T12:40:32.081Z,38.44
2023-01-21T12:43:16.450Z,38.15
2023-01-21T12:45:51.769Z,37.84
2023-01-21T12:48:42.417Z,37.33
2023-01-21T12:51:12.085Z,36.55
2023-01-21T12:53:54.209Z,36.29
2023-01-21T12:56:43.473Z,35.89
2023-01-21T12:59:23.491Z,35.77
2023-01-21T13:02:20.516Z,35.80
2023-01-21T13:05:01.584Z,35.62
2023-01-21T13:08:14.501Z,35.56
2023-01-21T13:10:45.290Z,35.52
2023-01-21T13:13:51.325Z,35.37
2023-01-21T13:16:18.725Z,35.02
2023-01-21T13:18:52.956Z,35.21
2023-01-21T13:21:36.223Z,35.32
2023-01-21T13:24:16.852Z,35.23
2023-01-21T13:26:51.010Z,34.99
2023-01-21T13:29:31.741Z,34.97
2023-01-21T13:32:10.758Z,34.91
2023-01-21T13:34:57.429Z,34.61
2023-01-21T13:37:37.078Z,34.60
2023-01-21T13:40:35.423Z,34.66
2023-01-21T13:43:24.436Z,34.83
2023-01-21T13:46:00.309Z,34.94
2023-01-21T13:49:03.428Z,34.93
2023-01-21T13:51:42.675Z,35.16
2023-01-21T13:54:48.067Z,35.37
2023-01-21T13:57:43.439Z,35.63
2023-01-21T14:00:19.841Z,35.57
2023-01-21T14:02:53.961Z,35.61
2023-01-21T14:05:30.238Z,35.64
2023-01-21T14:08:12.280Z,35.73
2023-01-21T14:10:44.202Z,35.86
2023-01-21T14:13:18.318Z,35.38
2023-01-21T14:15:51.699Z,34.99
2023-01-21T14:18:22.038Z,34.89
2023-01-21T14:21:15.122Z,34.94
2023-01-21T14:24:07.378Z,35.11
2023-01-21T14:26:42.857Z,35.49
2023-01-21T14:29:46.346Z,35.54
2023-01-21T14:32:41.214Z,35.86
2023-01-21T14:35:13.719Z,35.63
2023-01-21T14:37:44.285Z,35.43
2023-01-21T14:40:32.313Z,35.42
2023-01-21T14:42:59.789Z,35.34
2023-01-21T14:45:49.379Z,35.31
2023-01-21T14:48:33.915Z,35.46
2023-01-21T14:51:07.736Z,35.49
2023-01-21T14:53:49.889Z,36.06
2023-01-21T14:56:26.899Z,36.19
2023-01-21T14:59:09.523Z,35.80
2023-01-21T15:01:41.816Z,35.56
2023-01-21T15:04:29.920Z,35.60
2023-01-21T15:07:13.620Z,35.72
2023-01-21T15:09:43.317Z,35.98
2023-01-21T15:12:17.482Z,35.95
2023-01-21T15:14:46.320Z,36.13
2023-01-21T15:17:51.609Z,36.33
2023-01-21T15:20:51.759Z,36.37
2023-01-21T15:23:31.680Z,36.20
2023-01-21T15:26:11.999Z,36.24
2023-01-21T15:28:48.899Z,36.23
2023-01-21T15:31:25.355Z,36.21
2023-01-21T15:33:59.026Z,36.57
2023-01-21T15:36:32.579Z,36.42
2023-01-21T15:39:23.559Z,36.17
2023-01-21T15:42:20.919Z,36.04
2023-01-21T15:45:07.267Z,35.97
2023-01-21T15:48:04.459Z,35.73
2023-01-21T15:50:41.839Z,35.90
2023-01-21T15:53:21.769Z,35.95
2023-01-21T15:55:54.151Z,36.03
2023-01-21T15:59:00.668Z,35.92
2023-01-21T16:01:38.500Z,35.64
2023-01-21T16:04:19.546Z,35.49
2023-01-21T16:06:54.338Z,35.49
2023-01-21T19:51:47.791Z,25.14
2023-01-21T19:54:15.941Z,38.94
2023-01-21T19:56:43.334Z,40.64
2023-01-21T19:59:13.236Z,41.63
2023-01-21T20:01:49.852Z,42.12
2023-01-21T20:04:19.550Z,42.82
2023-01-21T20:06:49.833Z,41.83
2023-01-21T20:09:20.022Z,40.57
2023-01-21T20:11:47.598Z,40.05
2023-01-21T20:14:15.728Z,39.65
2023-01-21T20:16:45.575Z,39.85
2023-01-21T20:19:14.363Z,38.95
2023-01-21T20:21:59.685Z,38.27
2023-01-21T20:24:29.891Z,37.43
2023-01-21T20:26:58.415Z,36.72
2023-01-21T20:29:28.656Z,36.80
2023-01-21T20:31:56.564Z,37.01
2023-01-21T20:34:26.361Z,37.24
2023-01-21T20:36:54.685Z,37.24
2023-01-21T20:39:22.416Z,37.17
2023-01-21T20:41:49.993Z,36.98
2023-01-21T20:44:18.542Z,37.19
2023-01-21T20:46:47.814Z,37.35
2023-01-21T20:49:15.428Z,37.50
2023-01-21T20:51:43.869Z,37.39
2023-01-21T20:54:12.088Z,37.66
2023-01-21T20:56:40.292Z,37.38
2023-01-21T20:59:08.939Z,37.01
2023-01-21T21:01:39.170Z,36.95
2023-01-21T21:04:06.630Z,36.93
2023-01-21T21:06:34.913Z,36.78
2023-01-21T21:09:02.627Z,36.76
2023-01-21T21:11:30.922Z,36.48
2023-01-21T21:14:01.559Z,36.32
2023-01-21T21:16:31.656Z,36.37
2023-01-21T21:19:01.331Z,36.61
2023-01-21T21:21:29.282Z,36.58
2023-01-21T21:23:56.957Z,36.51
2023-01-21T21:26:27.100Z,36.49
2023-01-21T21:28:55.222Z,36.34
2023-01-21T21:31:23.421Z,36.25
2023-01-21T21:33:51.152Z,36.63
2023-01-21T21:36:19.930Z,36.69
2023-01-21T21:38:49.022Z,36.94
2023-01-21T21:41:36.288Z,36.88
2023-01-21T21:44:07.842Z,36.85
2023-01-21T21:46:55.495Z,37.08
2023-01-21T21:49:23.744Z,36.98
2023-01-21T21:51:51.401Z,36.16
2023-01-21T21:54:20.789Z,35.57
2023-01-21T21:56:48.195Z,35.56
2023-01-21T21:59:17.360Z,35.84
2023-01-21T22:01:47.483Z,36.11
2023-01-21T22:04:15.397Z,36.40
2023-01-21T22:06:42.947Z,36.07
2023-01-21T22:09:11.426Z,35.73
2023-01-21T22:11:39.238Z,35.58
2023-01-21T22:14:07.588Z,35.25
2023-01-21T22:16:35.045Z,35.53
2023-01-21T22:19:02.631Z,35.80
2023-01-21T22:21:32.489Z,35.83
2023-01-21T22:24:03.612Z,35.70
2023-01-21T22:26:32.009Z,35.60
2023-01-21T22:28:59.479Z,35.81
2023-01-21T22:31:31.972Z,36.04
2023-01-21T22:34:00.018Z,36.14
2023-01-21T22:36:29.201Z,36.37
2023-01-21T22:38:57.183Z,36.30
2023-01-21T22:41:25.741Z,36.36
2023-01-21T22:43:53.608Z,36.54
2023-01-21T22:46:30.296Z,36.52
2023-01-21T22:48:58.457Z,36.36
2023-01-21T22:51:26.361Z,36.49
2023-01-21T22:53:53.949Z,36.37
2023-01-21T22:56:39.855Z,36.12
2023-01-21T22:59:11.550Z,36.09
2023-01-21T23:01:41.067Z,35.95
2023-01-21T23:04:08.513Z,36.02
2023-01-21T23:06:37.655Z,35.84
2023-01-21T23:09:06.749Z,36.05
2023-01-21T23:11:36.918Z,35.76
2023-01-21T23:14:04.160Z,36.10
2023-01-21T23:16:31.387Z,36.23
2023-01-21T23:18:58.745Z,36.42
2023-01-21T23:21:26.468Z,36.26
2023-01-21T23:23:54.038Z,36.42
2023-01-21T23:26:22.373Z,36.49
2023-01-21T23:28:53.570Z,36.54
2023-01-21T23:31:23.310Z,36.79
2023-01-21T23:33:51.724Z,36.93
2023-01-21T23:36:19.553Z,36.79
2023-01-21T23:38:48.563Z,36.72
2023-01-21T23:41:16.546Z,36.63
2023-01-21T23:43:43.788Z,36.66
2023-01-21T23:46:14.148Z,36.63
2023-01-21T23:48:42.018Z,36.62
